sensor_id;sensor_type;location;lat;lon;timestamp;pressure;altitude;pressure_sealevel;temperature;humidity
59987;BME280;46181;51.498;5.392;2023-04-25T00:03:25;101011.9;;;11.52;58.36523
59987;BME280;46181;51.498;5.392;2023-04-25T00:07:55;101012.9;;;11.56;58.30371
59987;BME280;46181;51.498;5.392;2023-04-25T00:12:25;101018.2;;;11.48;58.21387
59987;BME280;46181;51.498;5.392;2023-04-25T00:16:55;101023.9;;;11.32;58.30469
59987;BME280;46181;51.498;5.392;2023-04-25T00:21:25;101028.8;;;11.17;58.45313
59987;BME280;46181;51.498;5.392;2023-04-25T00:25:55;101037.5;;;11.06;58.78809
59987;BME280;46181;51.498;5.392;2023-04-25T00:30:25;101036.4;;;11.07;58.96973
59987;BME280;46181;51.498;5.392;2023-04-25T00:34:55;101032.4;;;11.11;59.00879
59987;BME280;46181;51.498;5.392;2023-04-25T00:39:25;101029.1;;;11.04;58.9209
59987;BME280;46181;51.498;5.392;2023-04-25T00:43:56;101029.3;;;10.89;59.03516
59987;BME280;46181;51.498;5.392;2023-04-25T00:48:26;101027;;;10.76;59.19727
59987;BME280;46181;51.498;5.392;2023-04-25T00:52:55;101028;;;10.71;59.47266
59987;BME280;46181;51.498;5.392;2023-04-25T00:57:25;101029;;;10.74;59.44238
59987;BME280;46181;51.498;5.392;2023-04-25T01:01:55;101034;;;10.76;59.43359
59987;BME280;46181;51.498;5.392;2023-04-25T01:06:25;101036.2;;;10.72;59.41895
59987;BME280;46181;51.498;5.392;2023-04-25T01:10:55;101027.5;;;10.62;59.31445
59987;BME280;46181;51.498;5.392;2023-04-25T01:15:25;101029.1;;;10.49;59.40918
59987;BME280;46181;51.498;5.392;2023-04-25T01:19:55;101031.8;;;10.35;59.64844
59987;BME280;46181;51.498;5.392;2023-04-25T01:24:25;101032.1;;;10.24;59.79102
59987;BME280;46181;51.498;5.392;2023-04-25T01:28:55;101036.6;;;10.16;59.93848
59987;BME280;46181;51.498;5.392;2023-04-25T01:33:25;101041.4;;;10.19;60.22363
59987;BME280;46181;51.498;5.392;2023-04-25T01:37:55;101041.2;;;10.24;60.11719
59987;BME280;46181;51.498;5.392;2023-04-25T01:42:25;101048.1;;;10.23;60.04883
59987;BME280;46181;51.498;5.392;2023-04-25T01:46:55;101044.5;;;10.15;60.07129
59987;BME280;46181;51.498;5.392;2023-04-25T01:51:25;101048.6;;;10.11;60.25684
59987;BME280;46181;51.498;5.392;2023-04-25T01:55:55;101043.8;;;10.11;60.36914
59987;BME280;46181;51.498;5.392;2023-04-25T02:00:25;101045.6;;;10.17;60.42188
59987;BME280;46181;51.498;5.392;2023-04-25T02:04:55;101052.5;;;10.29;60.33691
59987;BME280;46181;51.498;5.392;2023-04-25T02:09:25;101059.8;;;10.37;60.24805
59987;BME280;46181;51.498;5.392;2023-04-25T02:13:55;101070.7;;;10.37;60.13574
59987;BME280;46181;51.498;5.392;2023-04-25T02:18:25;101065;;;10.32;60.13965
59987;BME280;46181;51.498;5.392;2023-04-25T02:22:55;101064.7;;;10.26;60.10938
59987;BME280;46181;51.498;5.392;2023-04-25T02:27:25;101065.1;;;10.15;60.25098
59987;BME280;46181;51.498;5.392;2023-04-25T02:31:55;101066.5;;;10.05;60.34961
59987;BME280;46181;51.498;5.392;2023-04-25T02:36:25;101072.2;;;9.96;60.42676
59987;BME280;46181;51.498;5.392;2023-04-25T02:40:55;101075.7;;;9.89;60.54004
59987;BME280;46181;51.498;5.392;2023-04-25T02:45:25;101070.1;;;9.82;60.75488
59987;BME280;46181;51.498;5.392;2023-04-25T02:49:55;101070.9;;;9.75;60.8584
59987;BME280;46181;51.498;5.392;2023-04-25T02:54:25;101066.4;;;9.7;60.95215
59987;BME280;46181;51.498;5.392;2023-04-25T02:58:55;101065;;;9.65;61.125
59987;BME280;46181;51.498;5.392;2023-04-25T03:03:25;101068.5;;;9.66;61.14746
59987;BME280;46181;51.498;5.392;2023-04-25T03:07:55;101071;;;9.64;61.1123
59987;BME280;46181;51.498;5.392;2023-04-25T03:12:25;101073.2;;;9.63;61.32324
59987;BME280;46181;51.498;5.392;2023-04-25T03:16:55;101079.6;;;9.69;61.35645
59987;BME280;46181;51.498;5.392;2023-04-25T03:21:25;101070.6;;;9.74;61.35156
59987;BME280;46181;51.498;5.392;2023-04-25T03:25:55;101079.8;;;9.81;61.34863
59987;BME280;46181;51.498;5.392;2023-04-25T03:30:25;101081.3;;;9.91;61.30762
59987;BME280;46181;51.498;5.392;2023-04-25T03:34:55;101077.1;;;10.01;61.2207
59987;BME280;46181;51.498;5.392;2023-04-25T03:39:25;101081.8;;;10.1;61.15332
59987;BME280;46181;51.498;5.392;2023-04-25T03:43:55;101079.4;;;10.18;61.07617
59987;BME280;46181;51.498;5.392;2023-04-25T03:48:25;101078.8;;;10.26;61.05273
59987;BME280;46181;51.498;5.392;2023-04-25T03:52:55;101075.7;;;10.29;60.97852
59987;BME280;46181;51.498;5.392;2023-04-25T03:57:25;101083.6;;;10.35;60.94141
59987;BME280;46181;51.498;5.392;2023-04-25T04:01:55;101089.6;;;10.4;60.83691
59987;BME280;46181;51.498;5.392;2023-04-25T04:06:25;101098.9;;;10.43;60.78418
59987;BME280;46181;51.498;5.392;2023-04-25T04:10:55;101097.8;;;10.44;60.75195
59987;BME280;46181;51.498;5.392;2023-04-25T04:15:25;101105.4;;;10.48;60.62207
59987;BME280;46181;51.498;5.392;2023-04-25T04:19:55;101103.4;;;10.48;60.68945
59987;BME280;46181;51.498;5.392;2023-04-25T04:24:25;101111.8;;;10.51;60.78418
59987;BME280;46181;51.498;5.392;2023-04-25T04:28:55;101113.5;;;10.54;60.6543
59987;BME280;46181;51.498;5.392;2023-04-25T04:33:25;101115.8;;;10.58;60.6582
59987;BME280;46181;51.498;5.392;2023-04-25T04:37:55;101117.5;;;10.59;60.59277
59987;BME280;46181;51.498;5.392;2023-04-25T04:42:25;101118.8;;;10.61;60.62891
59987;BME280;46181;51.498;5.392;2023-04-25T04:46:55;101123.5;;;10.62;60.6416
59987;BME280;46181;51.498;5.392;2023-04-25T04:51:25;101131.2;;;10.62;60.5752
59987;BME280;46181;51.498;5.392;2023-04-25T04:55:55;101136.6;;;10.54;60.54102
59987;BME280;46181;51.498;5.392;2023-04-25T05:00:25;101142;;;10.43;60.79688
59987;BME280;46181;51.498;5.392;2023-04-25T05:04:55;101148.8;;;10.49;61.10938
59987;BME280;46181;51.498;5.392;2023-04-25T05:09:25;101160.5;;;10.66;61.0752
59987;BME280;46181;51.498;5.392;2023-04-25T05:13:55;101163;;;10.85;60.85352
59987;BME280;46181;51.498;5.392;2023-04-25T05:18:25;101168.7;;;10.94;60.74316
59987;BME280;46181;51.498;5.392;2023-04-25T05:22:55;101168.2;;;11.07;60.71582
59987;BME280;46181;51.498;5.392;2023-04-25T05:27:25;101182.6;;;11.2;60.5752
59987;BME280;46181;51.498;5.392;2023-04-25T05:31:55;101185.5;;;11.3;60.41016
59987;BME280;46181;51.498;5.392;2023-04-25T05:36:25;101181.8;;;11.39;60.36523
59987;BME280;46181;51.498;5.392;2023-04-25T05:40:55;101181.4;;;11.42;60.28027
59987;BME280;46181;51.498;5.392;2023-04-25T05:45:25;101183.1;;;11.51;60.29199
59987;BME280;46181;51.498;5.392;2023-04-25T05:49:55;101191.5;;;11.63;60.25195
59987;BME280;46181;51.498;5.392;2023-04-25T05:54:25;101193.2;;;11.75;60.14551
59987;BME280;46181;51.498;5.392;2023-04-25T05:58:55;101205.9;;;11.89;59.96094
59987;BME280;46181;51.498;5.392;2023-04-25T06:03:25;101214.4;;;11.97;59.68945
59987;BME280;46181;51.498;5.392;2023-04-25T06:07:55;101217.2;;;12.03;59.51758
59987;BME280;46181;51.498;5.392;2023-04-25T06:12:25;101224.3;;;12.08;59.38867
59987;BME280;46181;51.498;5.392;2023-04-25T06:16:55;101222.8;;;12.09;59.08594
59987;BME280;46181;51.498;5.392;2023-04-25T06:21:25;101224.3;;;12.01;58.70215
59987;BME280;46181;51.498;5.392;2023-04-25T06:25:55;101235.6;;;11.97;58.65137
59987;BME280;46181;51.498;5.392;2023-04-25T06:30:25;101236.5;;;11.83;58.50879
59987;BME280;46181;51.498;5.392;2023-04-25T06:34:55;101240.5;;;11.88;58.74219
59987;BME280;46181;51.498;5.392;2023-04-25T06:39:25;101241.5;;;11.97;58.08691
59987;BME280;46181;51.498;5.392;2023-04-25T06:43:55;101239.3;;;12.06;57.76074
59987;BME280;46181;51.498;5.392;2023-04-25T06:48:25;101246.8;;;12.2;56.97559
59987;BME280;46181;51.498;5.392;2023-04-25T06:52:55;101254.3;;;12.35;56.3623
59987;BME280;46181;51.498;5.392;2023-04-25T06:57:25;101258.3;;;12.47;55.47266
59987;BME280;46181;51.498;5.392;2023-04-25T07:01:55;101251.2;;;12.56;54.4873
59987;BME280;46181;51.498;5.392;2023-04-25T07:06:25;101252.6;;;12.64;53.75
59987;BME280;46181;51.498;5.392;2023-04-25T07:10:55;101255;;;12.74;53.78418
59987;BME280;46181;51.498;5.392;2023-04-25T07:15:25;101258.7;;;12.91;53.03613
59987;BME280;46181;51.498;5.392;2023-04-25T07:19:55;101262.5;;;13.07;52.33984
59987;BME280;46181;51.498;5.392;2023-04-25T07:24:25;101278.4;;;13.37;51.96777
59987;BME280;46181;51.498;5.392;2023-04-25T07:28:55;101275.1;;;13.6;51.41602
59987;BME280;46181;51.498;5.392;2023-04-25T07:33:25;101277.2;;;14;50.8252
59987;BME280;46181;51.498;5.392;2023-04-25T07:37:55;101286.4;;;14.22;49.29199
59987;BME280;46181;51.498;5.392;2023-04-25T07:42:25;101288.4;;;14.07;48.4668
59987;BME280;46181;51.498;5.392;2023-04-25T07:46:55;101301;;;14.03;48.55469
59987;BME280;46181;51.498;5.392;2023-04-25T07:51:25;101298.9;;;14.11;48.39258
59987;BME280;46181;51.498;5.392;2023-04-25T07:55:55;101308.5;;;14.21;47.85645
59987;BME280;46181;51.498;5.392;2023-04-25T08:00:26;101310;;;14.17;47.06641
59987;BME280;46181;51.498;5.392;2023-04-25T08:04:55;101314.8;;;14.23;46.95898
59987;BME280;46181;51.498;5.392;2023-04-25T08:09:25;101317.7;;;14.38;46.62109
59987;BME280;46181;51.498;5.392;2023-04-25T08:13:55;101320.4;;;14.59;46.59766
59987;BME280;46181;51.498;5.392;2023-04-25T08:18:25;101326.8;;;14.69;45.8457
59987;BME280;46181;51.498;5.392;2023-04-25T08:22:55;101338.3;;;14.6;45.40234
59987;BME280;46181;51.498;5.392;2023-04-25T08:27:25;101343;;;14.65;45.56738
59987;BME280;46181;51.498;5.392;2023-04-25T08:31:55;101353.9;;;14.7;45.50488
59987;BME280;46181;51.498;5.392;2023-04-25T08:36:25;101348.4;;;14.85;45.30273
59987;BME280;46181;51.498;5.392;2023-04-25T08:40:57;101359.3;;;14.96;44.39063
59987;BME280;46181;51.498;5.392;2023-04-25T08:45:25;101368.7;;;15.06;44.38867
59987;BME280;46181;51.498;5.392;2023-04-25T08:49:55;101361.5;;;15.23;44.13086
59987;BME280;46181;51.498;5.392;2023-04-25T08:54:25;101370.3;;;15.64;43.875
59987;BME280;46181;51.498;5.392;2023-04-25T08:58:56;101380.9;;;15.96;43.78125
59987;BME280;46181;51.498;5.392;2023-04-25T09:03:25;101389.3;;;16.23;42.9375
59987;BME280;46181;51.498;5.392;2023-04-25T09:07:55;101407.3;;;16.26;42.34473
59987;BME280;46181;51.498;5.392;2023-04-25T09:12:26;101414.8;;;16.24;42.30859
59987;BME280;46181;51.498;5.392;2023-04-25T09:17:06;101415.4;;;16.1;42.13379
59987;BME280;46181;51.498;5.392;2023-04-25T09:21:25;101422.7;;;16.04;41.72754
59987;BME280;46181;51.498;5.392;2023-04-25T09:25:56;101422.1;;;16.07;41.27246
59987;BME280;46181;51.498;5.392;2023-04-25T09:30:32;101429.6;;;16.17;40.98438
59987;BME280;46181;51.498;5.392;2023-04-25T09:34:56;101432.1;;;16.31;40.76758
59987;BME280;46181;51.498;5.392;2023-04-25T09:39:25;101435.7;;;16.21;40.45996
59987;BME280;46181;51.498;5.392;2023-04-25T09:44:00;101432.7;;;16.23;40.20996
59987;BME280;46181;51.498;5.392;2023-04-25T09:48:28;101445;;;16.32;39.46191
59987;BME280;46181;51.498;5.392;2023-04-25T09:53:11;101438.2;;;16.77;39.82227
59987;BME280;46181;51.498;5.392;2023-04-25T09:57:26;101438.8;;;17.4;38.85645
59987;BME280;46181;51.498;5.392;2023-04-25T10:01:56;101448.5;;;17.47;38.36914
59987;BME280;46181;51.498;5.392;2023-04-25T10:06:28;101449.4;;;16.84;37.76172
59987;BME280;46181;51.498;5.392;2023-04-25T10:10:55;101447.5;;;16.47;38.38477
59987;BME280;46181;51.498;5.392;2023-04-25T10:15:25;101438;;;16.48;38.4541
59987;BME280;46181;51.498;5.392;2023-04-25T10:19:56;101447.7;;;16.32;37.58008
59987;BME280;46181;51.498;5.392;2023-04-25T10:24:25;101439.5;;;16.17;37.11914
59987;BME280;46181;51.498;5.392;2023-04-25T10:29:08;101438.7;;;16.63;37.37695
59987;BME280;46181;51.498;5.392;2023-04-25T10:33:38;101445.1;;;17.35;35.98828
59987;BME280;46181;51.498;5.392;2023-04-25T10:38:13;101453.7;;;17.74;35.17871
59987;BME280;46181;51.498;5.392;2023-04-25T10:42:26;101458.4;;;18;34.41504
59987;BME280;46181;51.498;5.392;2023-04-25T10:46:55;101461.9;;;17.84;33.98828
59987;BME280;46181;51.498;5.392;2023-04-25T10:51:27;101462.3;;;17.59;34.4873
59987;BME280;46181;51.498;5.392;2023-04-25T10:56:03;101452.6;;;17.67;34.91992
59987;BME280;46181;51.498;5.392;2023-04-25T11:00:26;101447.3;;;17.9;34.68457
59987;BME280;46181;51.498;5.392;2023-04-25T11:04:56;101455.5;;;18.25;34.80371
59987;BME280;46181;51.498;5.392;2023-04-25T11:09:27;101458.2;;;18.25;34.5957
59987;BME280;46181;51.498;5.392;2023-04-25T11:13:56;101464.8;;;17.86;35.32617
59987;BME280;46181;51.498;5.392;2023-04-25T11:18:29;101476.5;;;17.31;36.22656
59987;BME280;46181;51.498;5.392;2023-04-25T11:22:56;101483.8;;;16.71;37.86621
59987;BME280;46181;51.498;5.392;2023-04-25T11:27:25;101495.5;;;15.87;39.08887
59987;BME280;46181;51.498;5.392;2023-04-25T11:31:56;101499.2;;;15.37;40.05078
59987;BME280;46181;51.498;5.392;2023-04-25T11:36:26;101496.9;;;15.17;40.67285
59987;BME280;46181;51.498;5.392;2023-04-25T11:40:58;101503.3;;;15.04;40.73047
59987;BME280;46181;51.498;5.392;2023-04-25T11:45:25;101500.5;;;15.11;40.82715
59987;BME280;46181;51.498;5.392;2023-04-25T11:49:56;101495.2;;;15.37;40.47461
59987;BME280;46181;51.498;5.392;2023-04-25T11:54:25;101493.1;;;15.54;39.73535
59987;BME280;46181;51.498;5.392;2023-04-25T11:59:09;101499.6;;;15.47;39.28223
59987;BME280;46181;51.498;5.392;2023-04-25T12:03:26;101497.6;;;15.63;39.02148
59987;BME280;46181;51.498;5.392;2023-04-25T12:07:55;101498.4;;;16.17;38.65723
59987;BME280;46181;51.498;5.392;2023-04-25T12:12:25;101503.1;;;16.77;37.50293
59987;BME280;46181;51.498;5.392;2023-04-25T12:16:56;101504.7;;;16.51;35.79297
59987;BME280;46181;51.498;5.392;2023-04-25T12:21:25;101509.4;;;16.08;35.75781
59987;BME280;46181;51.498;5.392;2023-04-25T12:25:55;101508.6;;;16.17;36.21387
59987;BME280;46181;51.498;5.392;2023-04-25T12:30:25;101508.9;;;16.32;34.99707
59987;BME280;46181;51.498;5.392;2023-04-25T12:34:55;101512;;;16.49;35.04492
59987;BME280;46181;51.498;5.392;2023-04-25T12:39:29;101513.1;;;16.77;34.41113
59987;BME280;46181;51.498;5.392;2023-04-25T12:43:55;101514.7;;;17.26;34.07031
59987;BME280;46181;51.498;5.392;2023-04-25T12:48:25;101519.6;;;17.82;33.11035
59987;BME280;46181;51.498;5.392;2023-04-25T12:52:55;101536.1;;;17.71;33.05664
59987;BME280;46181;51.498;5.392;2023-04-25T12:57:25;101531.3;;;17.54;32.7666
59987;BME280;46181;51.498;5.392;2023-04-25T13:01:55;101525.5;;;17.86;32.50195
59987;BME280;46181;51.498;5.392;2023-04-25T13:06:27;101546.8;;;18.19;32.74609
59987;BME280;46181;51.498;5.392;2023-04-25T13:10:56;101546.2;;;17.96;33.06348
59987;BME280;46181;51.498;5.392;2023-04-25T13:15:25;101543.7;;;17.82;33.75586
59987;BME280;46181;51.498;5.392;2023-04-25T13:19:55;101561.3;;;17.85;33.68945
59987;BME280;46181;51.498;5.392;2023-04-25T13:24:25;101544.8;;;17.72;33.875
59987;BME280;46181;51.498;5.392;2023-04-25T13:28:55;101547.8;;;17.52;33.44531
59987;BME280;46181;51.498;5.392;2023-04-25T13:33:25;101550.9;;;17.4;33.54004
59987;BME280;46181;51.498;5.392;2023-04-25T13:37:55;101548.3;;;17.32;32.93555
59987;BME280;46181;51.498;5.392;2023-04-25T13:42:25;101545.6;;;17.04;33.04102
59987;BME280;46181;51.498;5.392;2023-04-25T13:46:55;101539;;;16.9;33.4209
59987;BME280;46181;51.498;5.392;2023-04-25T13:51:26;101533.8;;;16.94;33.91895
59987;BME280;46181;51.498;5.392;2023-04-25T13:55:55;101540.2;;;16.95;33.50586
59987;BME280;46181;51.498;5.392;2023-04-25T14:00:26;101541.6;;;16.86;33.71777
59987;BME280;46181;51.498;5.392;2023-04-25T14:04:55;101535.8;;;17.18;33.9375
59987;BME280;46181;51.498;5.392;2023-04-25T14:09:26;101538.6;;;17.32;33.66113
59987;BME280;46181;51.498;5.392;2023-04-25T14:13:55;101549.6;;;17.39;33.89551
59987;BME280;46181;51.498;5.392;2023-04-25T14:18:25;101542.7;;;17.5;33.87012
59987;BME280;46181;51.498;5.392;2023-04-25T14:22:55;101539.4;;;17.43;33.44922
59987;BME280;46181;51.498;5.392;2023-04-25T14:27:25;101538.2;;;17.08;33.44629
59987;BME280;46181;51.498;5.392;2023-04-25T14:31:55;101545.6;;;16.62;33.79102
59987;BME280;46181;51.498;5.392;2023-04-25T14:36:25;101543.9;;;16.49;33.32031
59987;BME280;46181;51.498;5.392;2023-04-25T14:40:55;101547.7;;;16.38;33.875
59987;BME280;46181;51.498;5.392;2023-04-25T14:45:25;101540.6;;;16.73;32.93652
59987;BME280;46181;51.498;5.392;2023-04-25T14:49:55;101545;;;17.04;31.77441
59987;BME280;46181;51.498;5.392;2023-04-25T14:54:25;101553.4;;;16.96;31.51465
59987;BME280;46181;51.498;5.392;2023-04-25T14:58:55;101551;;;16.74;31.30371
59987;BME280;46181;51.498;5.392;2023-04-25T15:03:25;101548.6;;;16.53;31.61133
59987;BME280;46181;51.498;5.392;2023-04-25T15:07:55;101547.9;;;16.42;32.22363
59987;BME280;46181;51.498;5.392;2023-04-25T15:12:25;101560.8;;;16.67;32.46094
59987;BME280;46181;51.498;5.392;2023-04-25T15:16:55;101559.1;;;16.99;32.05762
59987;BME280;46181;51.498;5.392;2023-04-25T15:21:25;101558.4;;;17.13;31.29688
59987;BME280;46181;51.498;5.392;2023-04-25T15:25:56;101566.7;;;17.04;31.37109
59987;BME280;46181;51.498;5.392;2023-04-25T15:30:26;101572.1;;;16.76;31.83496
59987;BME280;46181;51.498;5.392;2023-04-25T15:34:55;101582.6;;;16.58;32.47656
59987;BME280;46181;51.498;5.392;2023-04-25T15:39:25;101583.8;;;16.43;33.14355
59987;BME280;46181;51.498;5.392;2023-04-25T15:43:55;101592.5;;;16.42;33.48828
59987;BME280;46181;51.498;5.392;2023-04-25T15:48:25;101593.4;;;16.48;33.72266
59987;BME280;46181;51.498;5.392;2023-04-25T15:52:56;101590.3;;;16.45;33.39844
59987;BME280;46181;51.498;5.392;2023-04-25T15:57:25;101589.7;;;16.33;33.38965
59987;BME280;46181;51.498;5.392;2023-04-25T16:01:55;101603.8;;;16.26;33.83203
59987;BME280;46181;51.498;5.392;2023-04-25T16:06:25;101603.4;;;16.25;33.94629
59987;BME280;46181;51.498;5.392;2023-04-25T16:10:55;101603.9;;;16.16;33.66309
59987;BME280;46181;51.498;5.392;2023-04-25T16:15:26;101607.5;;;16.05;33.78125
59987;BME280;46181;51.498;5.392;2023-04-25T16:19:55;101613.3;;;15.92;33.56543
59987;BME280;46181;51.498;5.392;2023-04-25T16:24:25;101612;;;15.77;33.65625
59987;BME280;46181;51.498;5.392;2023-04-25T16:28:55;101607.9;;;15.68;33.60352
59987;BME280;46181;51.498;5.392;2023-04-25T16:33:25;101619.1;;;15.55;33.62891
59987;BME280;46181;51.498;5.392;2023-04-25T16:37:55;101616.5;;;15.47;34.17285
59987;BME280;46181;51.498;5.392;2023-04-25T16:42:25;101623.2;;;15.41;34.58105
59987;BME280;46181;51.498;5.392;2023-04-25T16:46:55;101624;;;15.19;34.88477
59987;BME280;46181;51.498;5.392;2023-04-25T16:51:25;101624.2;;;15.01;35.23633
59987;BME280;46181;51.498;5.392;2023-04-25T16:55:55;101623.5;;;14.9;35.3877
59987;BME280;46181;51.498;5.392;2023-04-25T17:00:26;101636.2;;;14.85;35.57813
59987;BME280;46181;51.498;5.392;2023-04-25T17:04:55;101636;;;14.87;36.07129
59987;BME280;46181;51.498;5.392;2023-04-25T17:09:25;101623.8;;;14.89;36.16504
59987;BME280;46181;51.498;5.392;2023-04-25T17:13:55;101636.3;;;14.89;36.00488
59987;BME280;46181;51.498;5.392;2023-04-25T17:18:25;101646;;;14.77;36.08691
59987;BME280;46181;51.498;5.392;2023-04-25T17:22:55;101639.2;;;14.68;36.31934
59987;BME280;46181;51.498;5.392;2023-04-25T17:27:25;101645.9;;;14.54;36.08984
59987;BME280;46181;51.498;5.392;2023-04-25T17:31:56;101655.8;;;14.37;36.29395
59987;BME280;46181;51.498;5.392;2023-04-25T17:36:25;101658.9;;;14.25;36.67285
59987;BME280;46181;51.498;5.392;2023-04-25T17:40:55;101662.1;;;14.19;36.73633
59987;BME280;46181;51.498;5.392;2023-04-25T17:45:25;101665.5;;;14.01;36.61816
59987;BME280;46181;51.498;5.392;2023-04-25T17:49:55;101657.7;;;13.9;36.47168
59987;BME280;46181;51.498;5.392;2023-04-25T17:54:26;101671.2;;;13.78;36.92969
59987;BME280;46181;51.498;5.392;2023-04-25T17:58:55;101677.8;;;13.69;37.36719
59987;BME280;46181;51.498;5.392;2023-04-25T18:03:25;101681.9;;;13.6;38.07715
59987;BME280;46181;51.498;5.392;2023-04-25T18:07:55;101688.6;;;13.51;38.47949
59987;BME280;46181;51.498;5.392;2023-04-25T18:12:25;101692.5;;;13.41;39.04102
59987;BME280;46181;51.498;5.392;2023-04-25T18:16:56;101694.1;;;13.3;39.38477
59987;BME280;46181;51.498;5.392;2023-04-25T18:21:25;101696.6;;;13.22;39.61621
59987;BME280;46181;51.498;5.392;2023-04-25T18:25:55;101699.9;;;13.14;39.7002
59987;BME280;46181;51.498;5.392;2023-04-25T18:30:26;101703.8;;;13.05;39.99902
59987;BME280;46181;51.498;5.392;2023-04-25T18:34:55;101708.1;;;12.95;40.16113
59987;BME280;46181;51.498;5.392;2023-04-25T18:39:26;101710.4;;;12.85;40.15234
59987;BME280;46181;51.498;5.392;2023-04-25T18:43:55;101715.9;;;12.77;40.43945
59987;BME280;46181;51.498;5.392;2023-04-25T18:48:25;101722.9;;;12.7;40.58105
59987;BME280;46181;51.498;5.392;2023-04-25T18:52:55;101724.2;;;12.56;40.87598
59987;BME280;46181;51.498;5.392;2023-04-25T18:57:25;101733.1;;;12.47;40.86621
59987;BME280;46181;51.498;5.392;2023-04-25T19:01:56;101739.9;;;12.37;41.14258
59987;BME280;46181;51.498;5.392;2023-04-25T19:06:26;101735.1;;;12.27;41.31445
59987;BME280;46181;51.498;5.392;2023-04-25T19:10:56;101736.1;;;12.19;41.5332
59987;BME280;46181;51.498;5.392;2023-04-25T19:15:25;101737.3;;;12.09;41.55859
59987;BME280;46181;51.498;5.392;2023-04-25T19:19:55;101742.4;;;12.02;41.6875
59987;BME280;46181;51.498;5.392;2023-04-25T19:24:26;101749.2;;;11.93;42.06543
59987;BME280;46181;51.498;5.392;2023-04-25T19:29:05;101752.4;;;11.83;42.41895
59987;BME280;46181;51.498;5.392;2023-04-25T19:33:25;101760.7;;;11.7;42.61035
59987;BME280;46181;51.498;5.392;2023-04-25T19:37:55;101757.1;;;11.59;43.06348
59987;BME280;46181;51.498;5.392;2023-04-25T19:42:26;101761.1;;;11.48;43.25684
59987;BME280;46181;51.498;5.392;2023-04-25T19:46:55;101765.2;;;11.41;43.73633
59987;BME280;46181;51.498;5.392;2023-04-25T19:51:25;101771.9;;;11.31;43.89648
59987;BME280;46181;51.498;5.392;2023-04-25T19:55:55;101779.8;;;11.27;43.95996
59987;BME280;46181;51.498;5.392;2023-04-25T20:00:26;101785.1;;;11.21;44.16992
59987;BME280;46181;51.498;5.392;2023-04-25T20:04:55;101781;;;11.17;44.42578
59987;BME280;46181;51.498;5.392;2023-04-25T20:09:26;101785.8;;;11.09;44.65527
59987;BME280;46181;51.498;5.392;2023-04-25T20:13:55;101792.5;;;11.01;44.79492
59987;BME280;46181;51.498;5.392;2023-04-25T20:18:25;101790.4;;;10.93;45.0918
59987;BME280;46181;51.498;5.392;2023-04-25T20:22:55;101794.9;;;10.83;45.15918
59987;BME280;46181;51.498;5.392;2023-04-25T20:27:25;101799.5;;;10.75;45.53613
59987;BME280;46181;51.498;5.392;2023-04-25T20:31:55;101803;;;10.66;45.68457
59987;BME280;46181;51.498;5.392;2023-04-25T20:36:25;101805.3;;;10.57;45.91309
59987;BME280;46181;51.498;5.392;2023-04-25T20:40:55;101800.4;;;10.48;46.21973
59987;BME280;46181;51.498;5.392;2023-04-25T20:45:26;101799.9;;;10.4;46.30176
59987;BME280;46181;51.498;5.392;2023-04-25T20:49:55;101799.8;;;10.34;46.55566
59987;BME280;46181;51.498;5.392;2023-04-25T20:54:25;101797;;;10.27;46.76074
59987;BME280;46181;51.498;5.392;2023-04-25T20:58:56;101797.1;;;10.22;47.07227
59987;BME280;46181;51.498;5.392;2023-04-25T21:03:25;101801.6;;;10.16;47.17871
59987;BME280;46181;51.498;5.392;2023-04-25T21:07:56;101800.8;;;10.07;47.21387
59987;BME280;46181;51.498;5.392;2023-04-25T21:12:25;101798.8;;;10.01;47.44336
59987;BME280;46181;51.498;5.392;2023-04-25T21:16:55;101806.8;;;9.95;47.68555
59987;BME280;46181;51.498;5.392;2023-04-25T21:21:25;101800.9;;;9.87;48.04883
59987;BME280;46181;51.498;5.392;2023-04-25T21:25:55;101800.3;;;9.83;48.13477
59987;BME280;46181;51.498;5.392;2023-04-25T21:30:26;101812.3;;;9.78;48.26465
59987;BME280;46181;51.498;5.392;2023-04-25T21:34:55;101815.1;;;9.7;48.51465
59987;BME280;46181;51.498;5.392;2023-04-25T21:39:25;101819.3;;;9.62;48.60645
59987;BME280;46181;51.498;5.392;2023-04-25T21:43:56;101819.1;;;9.57;48.75977
59987;BME280;46181;51.498;5.392;2023-04-25T21:48:25;101822.3;;;9.51;48.94336
59987;BME280;46181;51.498;5.392;2023-04-25T21:52:56;101825.2;;;9.43;49.07129
59987;BME280;46181;51.498;5.392;2023-04-25T21:57:26;101824.4;;;9.35;49.33105
59987;BME280;46181;51.498;5.392;2023-04-25T22:01:56;101829.1;;;9.28;49.52539
59987;BME280;46181;51.498;5.392;2023-04-25T22:06:25;101828.3;;;9.22;49.81152
59987;BME280;46181;51.498;5.392;2023-04-25T22:10:56;101831.2;;;9.15;49.84961
59987;BME280;46181;51.498;5.392;2023-04-25T22:15:26;101834.7;;;9.06;49.96191
59987;BME280;46181;51.498;5.392;2023-04-25T22:19:56;101832.2;;;8.98;50.12207
59987;BME280;46181;51.498;5.392;2023-04-25T22:24:25;101834.9;;;8.9;50.24707
59987;BME280;46181;51.498;5.392;2023-04-25T22:28:56;101832.9;;;8.83;50.47461
59987;BME280;46181;51.498;5.392;2023-04-25T22:33:25;101833.6;;;8.77;50.68164
59987;BME280;46181;51.498;5.392;2023-04-25T22:37:56;101835.1;;;8.7;50.85254
59987;BME280;46181;51.498;5.392;2023-04-25T22:42:26;101838.8;;;8.66;51.07227
59987;BME280;46181;51.498;5.392;2023-04-25T22:46:56;101846.7;;;8.58;51.1084
59987;BME280;46181;51.498;5.392;2023-04-25T22:51:26;101838.5;;;8.54;51.27148
59987;BME280;46181;51.498;5.392;2023-04-25T22:56:02;101848.3;;;8.45;51.51855
59987;BME280;46181;51.498;5.392;2023-04-25T23:00:26;101852.9;;;8.45;51.67578
59987;BME280;46181;51.498;5.392;2023-04-25T23:04:56;101850.9;;;8.4;51.82617